createdAt,value
2023-01-04T00:01:40.467Z,16.18
2023-01-04T00:04:13.863Z,16.12
2023-01-04T00:06:40.837Z,16.12
2023-01-04T00:09:16.414Z,16.10
2023-01-04T00:11:48.979Z,16.14
2023-01-04T00:14:26.148Z,16.04
2023-01-04T00:17:09.168Z,16.14
2023-01-04T00:20:01.159Z,16.10
2023-01-04T00:22:38.444Z,16.08
2023-01-04T00:25:13.995Z,16.06
2023-01-04T00:27:46.991Z,16.11
2023-01-04T00:30:19.797Z,16.15
2023-01-04T00:32:58.738Z,16.13
2023-01-04T00:35:45.615Z,16.11
2023-01-04T00:38:20.945Z,16.03
2023-01-04T00:40:54.279Z,16.02
2023-01-04T00:43:28.525Z,15.90
2023-01-04T00:45:57.563Z,15.90
2023-01-04T00:48:28.187Z,15.88
2023-01-04T00:51:14.169Z,15.90
2023-01-04T00:53:41.084Z,15.83
2023-01-04T00:56:15.529Z,15.92
2023-01-04T00:58:45.129Z,15.76
2023-01-04T01:01:21.735Z,15.90
2023-01-04T01:04:04.984Z,15.94
2023-01-04T01:06:45.636Z,15.91
2023-01-04T01:09:15.668Z,16.02
2023-01-04T01:11:50.398Z,16.01
2023-01-04T01:14:20.966Z,16.03
2023-01-04T01:16:56.429Z,16.03
2023-01-04T01:19:25.132Z,16.06
2023-01-04T01:24:40.543Z,15.95
2023-01-04T01:27:07.548Z,15.93
2023-01-04T01:29:34.539Z,15.98
2023-01-04T01:32:06.100Z,15.87
2023-01-04T01:34:41.003Z,15.84
2023-01-04T01:37:11.525Z,15.89
2023-01-04T01:39:45.928Z,15.90
2023-01-04T01:42:30.557Z,15.90
2023-01-04T01:45:08.846Z,15.86
2023-01-04T01:47:46.832Z,15.83
2023-01-04T01:50:36.977Z,15.82
2023-01-04T01:53:24.367Z,15.77
2023-01-04T01:56:02.092Z,15.73
2023-01-04T01:58:40.185Z,15.71
2023-01-04T02:01:12.555Z,15.62
2023-01-04T02:03:43.906Z,15.62
2023-01-04T02:06:12.888Z,15.61
2023-01-04T02:08:44.510Z,15.52
2023-01-04T02:11:14.079Z,15.48
2023-01-04T02:17:05.375Z,15.45
2023-01-04T02:19:55.890Z,15.51
2023-01-04T02:23:01.727Z,15.41
2023-01-04T02:25:48.150Z,15.44
2023-01-04T02:28:30.152Z,15.42
2023-01-04T02:31:20.430Z,15.43
2023-01-04T02:34:00.281Z,15.38
2023-01-04T02:36:59.758Z,15.34
2023-01-04T02:40:01.779Z,15.38
2023-01-04T02:43:16.957Z,15.36
2023-01-04T02:45:59.189Z,15.30
2023-01-04T02:51:42.030Z,15.20
2023-01-04T02:54:25.339Z,15.10
2023-01-04T02:57:05.841Z,15.14
2023-01-04T03:03:17.344Z,15.09
2023-01-04T03:06:18.781Z,15.01
2023-01-04T03:08:48.875Z,15.02
2023-01-04T03:11:49.170Z,14.94
2023-01-04T03:14:32.422Z,14.90
2023-01-04T03:17:08.664Z,14.89
2023-01-04T03:19:55.517Z,14.85
2023-01-04T03:26:05.918Z,14.81
2023-01-04T03:29:03.940Z,14.84
2023-01-04T03:32:11.443Z,14.79
2023-01-04T03:35:12.357Z,14.71
2023-01-04T03:38:21.501Z,14.76
2023-01-04T03:41:15.507Z,14.73
2023-01-04T03:44:19.708Z,14.74
2023-01-04T03:47:22.794Z,14.69
2023-01-04T03:50:10.177Z,14.61
2023-01-04T03:52:39.393Z,14.64
2023-01-04T03:55:09.931Z,14.56
2023-01-04T03:57:45.274Z,14.56
2023-01-04T04:00:17.800Z,14.59
2023-01-04T04:03:10.288Z,14.50
2023-01-04T04:06:01.094Z,14.46
2023-01-04T04:08:29.018Z,14.41
2023-01-04T04:10:57.513Z,14.45
2023-01-04T04:13:27.540Z,14.48
2023-01-04T04:15:54.882Z,14.47
2023-01-04T04:21:15.487Z,14.37
2023-01-04T04:23:57.387Z,14.39
2023-01-04T04:26:26.980Z,14.32
2023-01-04T04:29:06.768Z,14.32
2023-01-04T04:31:49.086Z,14.29
2023-01-04T04:34:21.501Z,14.27
2023-01-04T04:36:48.545Z,14.26
2023-01-04T04:39:17.765Z,14.22
2023-01-04T04:41:47.740Z,14.19
2023-01-04T04:44:32.876Z,14.18
2023-01-04T04:47:00.581Z,14.18
2023-01-04T04:49:31.399Z,14.16
2023-01-04T04:51:58.393Z,14.09
2023-01-04T04:57:16.672Z,14.16
2023-01-04T04:59:54.617Z,14.10
2023-01-04T05:02:23.042Z,14.11
2023-01-04T05:04:58.996Z,14.08
2023-01-04T05:07:30.079Z,14.06
2023-01-04T05:09:59.327Z,14.06
2023-01-04T05:15:45.021Z,13.96
2023-01-04T05:18:20.002Z,14.04
2023-01-04T05:20:49.480Z,13.99
2023-01-04T05:23:20.163Z,14.04
2023-01-04T05:26:30.272Z,14.00
2023-01-04T05:29:10.100Z,14.00
2023-01-04T05:31:43.252Z,13.98
2023-01-04T05:34:17.073Z,14.03
2023-01-04T05:36:55.444Z,14.02
2023-01-04T05:39:27.964Z,14.07
2023-01-04T05:42:19.081Z,14.12
2023-01-04T05:44:52.314Z,14.07
2023-01-04T05:47:28.839Z,14.04
2023-01-04T05:50:09.558Z,14.05
2023-01-04T05:52:44.644Z,14.07
2023-01-04T05:55:21.138Z,14.11
2023-01-04T05:58:06.589Z,14.02
2023-01-04T06:00:56.249Z,14.06
2023-01-04T06:03:31.460Z,14.05
2023-01-04T06:06:01.604Z,14.11
2023-01-04T06:08:53.127Z,14.07
2023-01-04T06:11:27.264Z,13.98
2023-01-04T06:14:03.051Z,14.07
2023-01-04T06:16:50.753Z,14.12
2023-01-04T06:19:35.583Z,13.99
2023-01-04T06:25:10.068Z,14.12
2023-01-04T06:27:42.880Z,14.08
2023-01-04T06:30:16.908Z,14.05
2023-01-04T06:32:49.037Z,14.14
2023-01-04T06:38:11.670Z,14.14
2023-01-04T06:40:51.250Z,14.14
2023-01-04T06:43:31.825Z,14.06
2023-01-04T06:46:06.096Z,14.07
2023-01-04T06:48:33.358Z,14.10
2023-01-04T06:51:11.510Z,14.13
2023-01-04T06:53:40.270Z,14.11
2023-01-04T06:56:17.250Z,14.09
2023-01-04T06:58:49.636Z,13.99
2023-01-04T07:01:26.926Z,14.08
2023-01-04T07:03:57.162Z,14.06
2023-01-04T07:06:34.779Z,14.09
2023-01-04T07:09:11.598Z,14.07
2023-01-04T07:12:03.174Z,14.04
2023-01-04T07:14:40.511Z,14.02
2023-01-04T07:17:18.259Z,14.01
2023-01-04T07:19:45.680Z,13.94
2023-01-04T07:22:15.788Z,13.97
2023-01-04T07:24:48.587Z,14.03
2023-01-04T07:27:19.329Z,14.03
2023-01-04T07:29:49.462Z,14.11
2023-01-04T07:32:16.824Z,14.12
2023-01-04T07:34:47.916Z,14.05
2023-01-04T07:37:17.420Z,14.12
2023-01-04T07:39:51.492Z,14.10
2023-01-04T07:42:20.322Z,14.04
2023-01-04T07:44:47.520Z,14.07
2023-01-04T07:47:19.961Z,14.08
2023-01-04T07:49:49.155Z,14.11
2023-01-04T07:52:16.722Z,14.09
2023-01-04T07:54:44.264Z,14.11
2023-01-04T07:57:11.398Z,14.01
2023-01-04T07:59:41.787Z,14.07
2023-01-04T08:02:17.775Z,14.03
2023-01-04T08:04:45.212Z,14.05
2023-01-04T08:07:12.257Z,14.10
2023-01-04T08:09:39.288Z,14.08
2023-01-04T08:12:09.662Z,14.06
2023-01-04T08:14:39.770Z,14.07
2023-01-04T08:17:10.360Z,14.18
2023-01-04T08:19:39.327Z,14.19
2023-01-04T08:22:11.460Z,14.17
2023-01-04T08:24:38.570Z,14.19
2023-01-04T08:27:09.335Z,14.21
2023-01-04T08:29:40.837Z,14.21
2023-01-04T08:32:18.627Z,14.09
2023-01-04T08:34:51.643Z,14.20
2023-01-04T08:37:20.325Z,14.20
2023-01-04T08:39:50.238Z,14.25
2023-01-04T08:42:28.614Z,14.13
2023-01-04T08:45:00.452Z,14.14
2023-01-04T08:47:30.720Z,14.31
2023-01-04T08:49:58.298Z,14.25
2023-01-04T08:52:25.689Z,14.33
2023-01-04T08:54:53.149Z,14.40
2023-01-04T08:57:20.321Z,14.53
2023-01-04T08:59:47.395Z,14.60
2023-01-04T09:02:25.353Z,14.78
2023-01-04T09:04:52.716Z,14.99
2023-01-04T09:07:19.889Z,15.24
2023-01-04T09:09:52.808Z,15.52
2023-01-04T09:12:22.490Z,15.95
2023-01-04T09:14:49.713Z,16.21
2023-01-04T09:17:16.972Z,16.46
2023-01-04T09:19:47.706Z,16.67
2023-01-04T09:22:15.072Z,17.05
2023-01-04T09:24:42.507Z,17.33
2023-01-04T09:27:20.135Z,17.69
2023-01-04T09:29:47.671Z,18.02
2023-01-04T09:32:17.242Z,18.37
2023-01-04T09:34:47.888Z,18.75
2023-01-04T09:37:26.884Z,19.12
2023-01-04T09:39:55.330Z,19.41
2023-01-04T09:42:39.294Z,19.60
2023-01-04T09:45:25.369Z,19.95
2023-01-04T09:47:54.004Z,20.23
2023-01-04T09:50:25.351Z,20.35
2023-01-04T09:53:13.590Z,20.65
2023-01-04T09:55:50.909Z,20.85
2023-01-04T09:58:31.430Z,21.15
2023-01-04T10:01:05.378Z,21.29
2023-01-04T10:03:49.354Z,21.50
2023-01-04T10:06:27.561Z,21.72
2023-01-04T10:09:01.696Z,22.16
2023-01-04T10:11:47.498Z,22.38
2023-01-04T10:14:33.375Z,22.65
2023-01-04T10:17:17.845Z,22.89
2023-01-04T10:23:01.380Z,23.65
2023-01-04T10:25:34.369Z,23.78
2023-01-04T10:28:25.568Z,23.92
2023-01-04T10:31:41.041Z,24.15
2023-01-04T10:34:30.861Z,24.48
2023-01-04T10:37:48.200Z,24.80
2023-01-04T10:40:17.632Z,25.13
2023-01-04T10:42:56.629Z,25.42
2023-01-04T10:45:48.119Z,25.58
2023-01-04T10:48:25.499Z,26.08
2023-01-04T10:51:09.007Z,26.39
2023-01-04T10:53:57.121Z,26.59
2023-01-04T10:56:34.394Z,27.03
2023-01-04T10:59:09.573Z,27.26
2023-01-04T11:01:39.488Z,27.70
2023-01-04T11:04:24.961Z,27.89
2023-01-04T11:07:11.385Z,28.38
2023-01-04T11:09:53.312Z,28.79
2023-01-04T11:12:22.850Z,29.23
2023-01-04T11:14:58.636Z,29.35
2023-01-04T11:17:27.154Z,29.39
2023-01-04T11:19:56.122Z,29.83
2023-01-04T11:22:33.918Z,30.13
2023-01-04T11:25:35.019Z,30.68
2023-01-04T11:27:58.628Z,30.94
2023-01-04T11:30:29.478Z,31.16
2023-01-04T11:33:01.683Z,31.69
2023-01-04T11:35:53.623Z,31.39
2023-01-04T11:38:22.983Z,32.09
2023-01-04T11:41:06.117Z,32.49
2023-01-04T11:43:36.771Z,32.50
2023-01-04T11:46:06.056Z,32.90
2023-01-04T11:48:38.987Z,33.16
2023-01-04T11:51:17.326Z,33.46
2023-01-04T11:53:48.457Z,33.68
2023-01-04T11:56:24.380Z,33.69
2023-01-04T11:59:13.955Z,33.75
2023-01-04T12:01:52.107Z,34.13
2023-01-04T12:04:35.573Z,34.23
2023-01-04T12:07:11.244Z,34.22
2023-01-04T12:09:38.615Z,34.22
2023-01-04T12:12:15.981Z,34.52
2023-01-04T12:15:00.454Z,34.59
2023-01-04T12:17:43.326Z,34.82
2023-01-04T12:20:21.743Z,35.23
2023-01-04T12:22:55.857Z,34.77
2023-01-04T12:25:44.887Z,34.92
2023-01-04T12:28:38.533Z,35.14
2023-01-04T12:31:25.152Z,35.26
2023-01-04T12:34:21.278Z,35.17
2023-01-04T12:36:53.456Z,35.32
2023-01-04T12:39:24.647Z,35.62
2023-01-04T12:42:01.231Z,35.48
2023-01-04T12:44:39.089Z,35.51
2023-01-04T12:47:37.575Z,35.88
2023-01-04T12:50:09.144Z,35.49
2023-01-04T12:52:55.351Z,35.50
2023-01-04T12:55:42.137Z,35.78
2023-01-04T13:01:38.800Z,35.21
2023-01-04T13:04:24.871Z,34.65
2023-01-04T13:06:52.853Z,35.01
2023-01-04T13:09:28.206Z,35.23
2023-01-04T13:12:05.163Z,34.22
2023-01-04T13:14:36.946Z,33.32
2023-01-04T13:17:16.608Z,33.88
2023-01-04T13:19:45.668Z,33.38
2023-01-04T13:22:28.956Z,32.30
2023-01-04T13:25:20.785Z,32.47
2023-01-04T13:28:05.800Z,32.29
2023-01-04T13:30:48.909Z,32.76
2023-01-04T13:33:32.894Z,32.09
2023-01-04T13:36:12.258Z,30.99
2023-01-04T13:38:46.486Z,32.14
2023-01-04T13:41:25.626Z,32.42
2023-01-04T13:44:05.407Z,32.44
2023-01-04T13:46:35.397Z,31.59
2023-01-04T13:49:03.318Z,32.06
2023-01-04T13:51:37.027Z,31.90
2023-01-04T13:54:18.947Z,30.89
2023-01-04T13:56:55.815Z,30.00
2023-01-04T13:59:26.860Z,30.04
2023-01-04T14:01:55.589Z,30.11
2023-01-04T14:04:38.779Z,28.68
2023-01-04T14:07:11.597Z,29.40
2023-01-04T14:09:58.395Z,29.59
2023-01-04T14:12:31.609Z,28.97
2023-01-04T14:15:20.316Z,29.13
2023-01-04T14:17:50.253Z,28.78
2023-01-04T14:20:23.503Z,27.96
2023-01-04T14:22:54.309Z,28.63
2023-01-04T14:25:35.933Z,28.82
2023-01-04T14:28:25.080Z,27.71
2023-01-04T14:31:06.898Z,28.01
2023-01-04T14:33:39.572Z,27.61
2023-01-04T14:39:25.395Z,27.10
2023-01-04T14:42:02.146Z,27.64
2023-01-04T14:44:44.432Z,27.30
2023-01-04T14:47:21.191Z,27.11
2023-01-04T14:49:51.774Z,27.27
2023-01-04T14:52:23.752Z,26.77
2023-01-04T14:54:57.775Z,27.26
2023-01-04T14:57:33.695Z,27.24
2023-01-04T15:00:11.430Z,27.02
2023-01-04T15:02:41.785Z,27.16
2023-01-04T15:08:04.910Z,26.55
2023-01-04T15:10:39.570Z,26.78
2023-01-04T15:13:20.563Z,26.74
2023-01-04T15:15:57.500Z,26.56
2023-01-04T15:18:38.348Z,26.60
2023-01-04T15:21:12.198Z,26.50
2023-01-04T15:23:47.031Z,26.19
2023-01-04T15:26:19.953Z,25.38
2023-01-04T15:28:50.370Z,25.29
2023-01-04T15:31:21.002Z,25.30
2023-01-04T15:33:59.196Z,24.82
2023-01-04T15:36:32.361Z,24.86
2023-01-04T15:38:59.407Z,23.91
2023-01-04T15:41:44.975Z,24.27
2023-01-04T15:44:15.710Z,23.89
2023-01-04T15:46:42.807Z,23.84
2023-01-04T15:49:16.708Z,23.52
2023-01-04T15:51:47.533Z,23.14
2023-01-04T15:54:21.988Z,23.09
2023-01-04T15:57:01.283Z,22.53
2023-01-04T15:59:31.627Z,22.65
2023-01-04T16:02:14.530Z,22.47
2023-01-04T16:04:47.616Z,21.95
2023-01-04T16:07:14.911Z,21.64
2023-01-04T16:09:48.850Z,20.85
2023-01-04T16:12:43.198Z,20.88
2023-01-04T16:18:17.146Z,21.24
2023-01-04T16:20:49.613Z,21.26
2023-01-04T16:23:21.905Z,21.13
2023-01-04T16:25:52.642Z,21.05
2023-01-04T16:28:30.163Z,21.02
2023-01-04T16:31:05.522Z,21.23
2023-01-04T16:33:38.445Z,20.70
2023-01-04T16:36:07.278Z,20.85
2023-01-04T16:38:38.390Z,20.66
2023-01-04T16:41:13.662Z,20.37
2023-01-04T16:44:17.332Z,20.34
2023-01-04T16:46:47.507Z,20.02
2023-01-04T16:49:35.069Z,20.23
2023-01-04T16:52:04.429Z,20.07
2023-01-04T16:54:36.860Z,20.11
2023-01-04T17:00:03.390Z,20.08
2023-01-04T17:02:30.642Z,19.45
2023-01-04T17:05:03.880Z,19.40
2023-01-04T17:07:34.896Z,18.89
2023-01-04T17:10:11.940Z,19.07
2023-01-04T17:12:49.069Z,19.06
2023-01-04T17:15:42.576Z,18.48
2023-01-04T17:21:31.935Z,18.51
2023-01-04T17:23:56.370Z,18.45
2023-01-04T17:26:27.144Z,18.34
2023-01-04T17:29:10.391Z,18.36
2023-01-04T17:31:44.701Z,18.52
2023-01-04T17:34:22.458Z,18.54
2023-01-04T17:36:54.189Z,18.19
2023-01-04T17:39:22.928Z,18.25
2023-01-04T17:42:00.205Z,18.24
2023-01-04T17:44:39.927Z,18.20
2023-01-04T17:47:10.076Z,18.09
2023-01-04T17:49:40.089Z,17.96
2023-01-04T17:52:09.038Z,18.35
2023-01-04T17:54:37.141Z,18.36
2023-01-04T17:57:05.058Z,18.12
2023-01-04T17:59:32.539Z,18.60
2023-01-04T18:01:59.929Z,18.38
2023-01-04T18:04:27.005Z,18.44
2023-01-04T18:06:54.880Z,18.49
2023-01-04T18:09:24.481Z,18.60
2023-01-04T18:11:51.869Z,18.78
2023-01-04T18:14:24.560Z,18.64
2023-01-04T18:16:58.671Z,18.51
2023-01-04T18:19:29.769Z,18.19
2023-01-04T18:21:57.865Z,18.57
2023-01-04T18:24:42.028Z,18.69
2023-01-04T18:27:29.013Z,18.82
2023-01-04T18:29:56.948Z,18.82
2023-01-04T18:32:28.539Z,18.99
2023-01-04T18:35:01.251Z,18.95
2023-01-04T18:37:35.771Z,18.99
2023-01-04T18:40:12.439Z,19.00
2023-01-04T18:42:55.981Z,19.04
2023-01-04T18:45:23.546Z,19.03
2023-01-04T18:47:52.509Z,19.00
2023-01-04T18:50:23.462Z,19.00
2023-01-04T18:52:53.194Z,19.01
2023-01-04T18:55:20.621Z,18.99
2023-01-04T18:57:47.984Z,18.91
2023-01-04T19:00:17.599Z,18.88
2023-01-04T19:02:47.438Z,18.87
2023-01-04T19:05:19.310Z,18.81
2023-01-04T19:07:50.853Z,18.79
2023-01-04T19:10:18.445Z,18.76
2023-01-04T19:12:48.316Z,18.75
2023-01-04T19:15:18.701Z,18.68
2023-01-04T19:17:48.779Z,18.70
2023-01-04T19:20:19.883Z,18.67
2023-01-04T19:22:47.431Z,18.63
2023-01-04T19:25:15.383Z,18.60
2023-01-04T19:27:43.014Z,18.53
2023-01-04T19:30:13.287Z,18.51
2023-01-04T19:32:45.362Z,18.52
2023-01-04T19:35:13.011Z,18.48
2023-01-04T19:37:43.500Z,18.47
2023-01-04T19:40:11.419Z,18.42
2023-01-04T19:42:40.515Z,18.37
2023-01-04T19:45:09.122Z,18.39
2023-01-04T19:47:36.435Z,18.40
2023-01-04T19:50:04.000Z,18.38
2023-01-04T19:52:34.401Z,18.34
2023-01-04T19:55:01.471Z,18.37
2023-01-04T19:57:28.486Z,18.40
2023-01-04T19:59:56.691Z,18.39
2023-01-04T20:02:23.935Z,18.37
2023-01-04T20:04:51.164Z,18.36
2023-01-04T20:07:23.803Z,18.34
2023-01-04T20:09:52.037Z,18.33
2023-01-04T20:12:22.030Z,18.26
2023-01-04T20:14:49.149Z,18.22
2023-01-04T20:17:16.057Z,18.16
2023-01-04T20:19:43.044Z,18.13
2023-01-04T20:22:10.943Z,18.10
2023-01-04T20:24:38.013Z,18.06
2023-01-04T20:27:05.204Z,18.04
2023-01-04T20:29:33.945Z,17.97
2023-01-04T20:32:04.840Z,17.91
2023-01-04T20:34:32.380Z,17.90
2023-01-04T20:36:59.399Z,17.84
2023-01-04T20:39:29.417Z,17.85
2023-01-04T20:42:14.874Z,17.75
2023-01-04T20:44:42.185Z,17.69
2023-01-04T20:47:10.516Z,17.67
2023-01-04T20:49:37.492Z,17.63
2023-01-04T20:52:04.684Z,17.51
2023-01-04T20:54:31.596Z,17.54
2023-01-04T20:56:58.689Z,17.53
2023-01-04T20:59:25.837Z,17.43
2023-01-04T21:01:56.369Z,17.41
2023-01-04T21:04:23.511Z,17.36
2023-01-04T21:06:51.568Z,17.32
2023-01-04T21:09:18.606Z,17.25
2023-01-04T21:11:45.558Z,17.26
2023-01-04T21:14:12.740Z,17.17
2023-01-04T21:16:42.082Z,17.23
2023-01-04T21:19:10.735Z,17.18
2023-01-04T21:21:40.840Z,17.17
2023-01-04T21:24:08.072Z,17.16
2023-01-04T21:26:35.369Z,17.10
2023-01-04T21:29:04.962Z,17.16
2023-01-04T21:31:32.644Z,17.10
2023-01-04T21:33:59.706Z,17.06
2023-01-04T21:36:29.369Z,17.02
2023-01-04T21:38:59.491Z,17.02
2023-01-04T21:41:26.786Z,16.94
2023-01-04T21:43:54.944Z,16.94
2023-01-04T21:46:23.285Z,16.94
2023-01-04T21:48:53.281Z,16.85
2023-01-04T21:51:20.477Z,16.87
2023-01-04T21:53:48.303Z,16.84
2023-01-04T21:56:17.062Z,16.80
2023-01-04T21:58:44.997Z,16.80
2023-01-04T22:01:17.353Z,16.81
2023-01-04T22:03:45.296Z,16.81
2023-01-04T22:06:14.089Z,16.81
2023-01-04T22:08:45.305Z,16.74
2023-01-04T22:11:14.019Z,16.74
2023-01-04T22:13:41.133Z,16.69
2023-01-04T22:16:16.147Z,16.64
2023-01-04T22:18:50.000Z,16.60
2023-01-04T22:21:21.508Z,16.60
2023-01-04T22:23:48.637Z,16.62
2023-01-04T22:26:15.795Z,16.59
2023-01-04T22:28:42.898Z,16.58
2023-01-04T22:31:11.687Z,16.55
2023-01-04T22:33:41.910Z,16.51
2023-01-04T22:36:17.125Z,16.43
2023-01-04T22:38:52.034Z,16.39
2023-01-04T22:41:21.562Z,16.34
2023-01-04T22:43:53.581Z,16.41
2023-01-04T22:46:20.642Z,16.37
2023-01-04T22:48:47.649Z,16.33
2023-01-04T22:51:16.505Z,16.33
2023-01-04T22:53:43.763Z,16.33
2023-01-04T22:56:21.641Z,16.25
2023-01-04T22:58:54.959Z,16.26
2023-01-04T23:01:24.236Z,16.25
2023-01-04T23:03:52.899Z,16.21
2023-01-04T23:06:20.936Z,16.18
2023-01-04T23:08:49.044Z,16.15
2023-01-04T23:11:17.892Z,16.22
2023-01-04T23:13:48.826Z,16.17
2023-01-04T23:16:18.941Z,16.21
2023-01-04T23:18:46.048Z,16.15
2023-01-04T23:21:15.656Z,16.17
2023-01-04T23:23:43.158Z,16.15
2023-01-04T23:26:14.773Z,16.12
2023-01-04T23:28:53.015Z,16.10
2023-01-04T23:31:36.210Z,16.07
2023-01-04T23:34:06.659Z,16.01
2023-01-04T23:36:38.189Z,15.98
2023-01-04T23:39:07.147Z,15.98
2023-01-04T23:41:49.350Z,15.93
2023-01-04T23:44:17.016Z,15.97
2023-01-04T23:46:44.776Z,15.94
2023-01-04T23:49:12.968Z,15.94
2023-01-04T23:51:43.285Z,15.91
2023-01-04T23:54:12.473Z,15.90
2023-01-04T23:56:40.026Z,15.86
2023-01-04T23:59:08.896Z,15.87
